Time;durP1;ratioP1;P1;durP2;ratioP2;P2;SDS_P1;SDS_P2;PMS_P1;PMS_P2;Temp;Humidity;BMP_temperature;BMP_pressure;BME280_temperature;BME280_humidity;BME280_pressure;Samples;Min_cycle;Max_cycle;Signal;HPM_P1;HPM_P2
2023/09/30 00:00:56;;;;;;;9.03;3.63;;;24.20;53.80;;;;;;5008732;28;20484;-47
2023/09/30 00:03:22;;;;;;;6.23;3.70;;;24.30;53.60;;;;;;4996446;28;20459;-48
2023/09/30 00:05:48;;;;;;;5.50;3.27;;;24.40;53.40;;;;;;5006917;28;20208;-49
2023/09/30 00:08:13;;;;;;;4.00;2.90;;;24.30;53.10;;;;;;4996323;28;20206;-47
2023/09/30 00:10:39;;;;;;;5.93;3.20;;;24.30;53.30;;;;;;5002980;28;20186;-46
2023/09/30 00:13:06;;;;;;;6.20;3.77;;;24.40;53.10;;;;;;4996734;28;20195;-47
2023/09/30 00:15:33;;;;;;;5.30;3.07;;;24.40;53.20;;;;;;4991786;28;20194;-46
2023/09/30 00:17:58;;;;;;;8.03;3.63;;;24.40;53.30;;;;;;4993997;28;20961;-48
2023/09/30 00:20:24;;;;;;;6.93;3.13;;;24.40;53.60;;;;;;5000815;28;20488;-46
2023/09/30 00:22:50;;;;;;;5.23;3.20;;;24.30;53.80;;;;;;5003826;28;20660;-47
2023/09/30 00:25:15;;;;;;;3.77;2.37;;;24.40;53.70;;;;;;4995547;28;20198;-46
2023/09/30 00:27:41;;;;;;;5.63;3.30;;;24.50;53.70;;;;;;5002784;28;20220;-47
2023/09/30 00:30:07;;;;;;;4.50;2.90;;;24.50;53.60;;;;;;5004597;28;20194;-46
2023/09/30 00:32:33;;;;;;;6.33;3.20;;;24.50;53.60;;;;;;4996867;28;20202;-47
2023/09/30 00:35:00;;;;;;;5.60;2.63;;;24.50;53.70;;;;;;5000195;28;20433;-46
2023/09/30 00:37:27;;;;;;;4.50;2.70;;;24.60;53.60;;;;;;4998994;28;20430;-47
2023/09/30 00:39:53;;;;;;;4.87;2.90;;;24.60;53.40;;;;;;4998502;28;20478;-48
2023/09/30 00:42:20;;;;;;;5.83;2.70;;;24.60;53.40;;;;;;4998208;28;20447;-47
2023/09/30 00:44:46;;;;;;;4.00;2.10;;;24.60;53.40;;;;;;4996312;28;20644;-46
2023/09/30 00:47:14;;;;;;;3.53;2.50;;;24.50;53.60;;;;;;4997067;28;20465;-47
2023/09/30 00:49:43;;;;;;;4.00;2.03;;;24.50;53.70;;;;;;5009081;28;20490;-51
2023/09/30 00:52:10;;;;;;;2.37;2.13;;;24.60;53.50;;;;;;5005651;28;20422;-52
2023/09/30 00:54:37;;;;;;;3.33;2.20;;;24.50;53.50;;;;;;4997862;28;20508;-50
2023/09/30 00:57:03;;;;;;;4.07;2.40;;;24.40;53.60;;;;;;4988692;28;20516;-52
2023/09/30 00:59:32;;;;;;;3.60;2.27;;;24.40;53.50;;;;;;4999397;28;20508;-50
2023/09/30 01:01:59;;;;;;;4.57;2.30;;;24.30;53.50;;;;;;4997823;28;20203;-49
2023/09/30 01:04:26;;;;;;;2.63;2.20;;;24.30;53.60;;;;;;5000958;28;20442;-52
2023/09/30 01:06:52;;;;;;;4.30;2.20;;;24.10;53.90;;;;;;4998406;28;20800;-50
2023/09/30 01:09:19;;;;;;;4.10;1.90;;;24.00;54.10;;;;;;4998954;28;20437;-50
2023/09/30 01:11:44;;;;;;;3.03;2.10;;;23.90;54.20;;;;;;4998015;28;20201;-51
2023/09/30 01:14:38;;;;;;;2.97;1.87;;;23.90;54.40;;;;;;5000285;28;20921;-49
2023/09/30 01:17:04;;;;;;;3.80;2.23;;;23.80;54.50;;;;;;4993836;28;20722;-52
2023/09/30 01:19:30;;;;;;;2.47;1.50;;;23.60;54.70;;;;;;5001300;28;20996;-48
2023/09/30 01:21:59;;;;;;;2.87;1.70;;;23.60;55.40;;;;;;4994438;28;20433;-46
2023/09/30 01:24:28;;;;;;;2.63;2.07;;;23.60;54.70;;;;;;5004042;28;20654;-49
2023/09/30 01:26:55;;;;;;;3.70;2.30;;;23.70;54.70;;;;;;4997967;28;20916;-50
2023/09/30 01:29:21;;;;;;;2.10;1.90;;;23.70;54.40;;;;;;5006717;28;20467;-51
2023/09/30 01:31:47;;;;;;;4.20;2.20;;;23.70;54.20;;;;;;5005020;28;20524;-50
2023/09/30 01:34:15;;;;;;;3.20;2.10;;;23.80;54.10;;;;;;5004640;28;20540;-52
2023/09/30 01:36:41;;;;;;;2.33;1.90;;;23.90;54.10;;;;;;5006611;28;20202;-47
2023/09/30 01:39:07;;;;;;;2.47;2.27;;;23.90;54.10;;;;;;4994676;28;20449;-49
2023/09/30 01:41:33;;;;;;;3.63;2.07;;;23.80;54.10;;;;;;4992829;28;20480;-52
2023/09/30 01:43:58;;;;;;;3.17;2.43;;;23.70;54.10;;;;;;4992676;28;20666;-47
2023/09/30 01:46:24;;;;;;;3.60;2.00;;;23.70;54.10;;;;;;5000787;28;20207;-46
2023/09/30 01:48:49;;;;;;;3.87;1.90;;;23.80;54.20;;;;;;4993012;28;20233;-52
2023/09/30 01:51:15;;;;;;;2.33;2.13;;;23.80;54.20;;;;;;4997989;28;20230;-49
2023/09/30 01:53:40;;;;;;;3.50;2.57;;;23.80;54.00;;;;;;4997928;28;20643;-50
2023/09/30 01:56:06;;;;;;;4.23;2.60;;;23.70;54.00;;;;;;5006753;28;20253;-48
2023/09/30 01:58:32;;;;;;;3.23;2.70;;;23.70;54.00;;;;;;4994126;28;20195;-50
2023/09/30 02:01:04;;;;;;;4.10;2.37;;;23.70;54.10;;;;;;4995882;28;20303;-48
2023/09/30 02:03:29;;;;;;;2.90;2.00;;;23.70;54.20;;;;;;4995518;28;20194;-47
2023/09/30 02:05:56;;;;;;;2.77;2.00;;;23.60;54.20;;;;;;5003176;28;20507;-46
2023/09/30 02:08:22;;;;;;;6.07;2.23;;;23.60;54.30;;;;;;4988732;28;20277;-49
2023/09/30 02:10:48;;;;;;;8.10;2.43;;;23.60;54.40;;;;;;4993251;28;20537;-46
2023/09/30 02:13:13;;;;;;;3.60;2.40;;;23.50;54.50;;;;;;4993727;28;20199;-50
2023/09/30 02:15:42;;;;;;;4.33;2.60;;;23.50;54.70;;;;;;4993032;28;20193;-47
2023/09/30 02:18:09;;;;;;;3.13;2.30;;;23.40;54.80;;;;;;5003866;28;20567;-47
2023/09/30 02:20:36;;;;;;;2.93;2.50;;;23.30;54.80;;;;;;5007797;28;20491;-50
2023/09/30 02:23:02;;;;;;;4.40;2.40;;;23.30;54.80;;;;;;4999848;28;20808;-50
2023/09/30 02:25:27;;;;;;;3.60;2.80;;;23.30;54.90;;;;;;4998370;28;20467;-50
2023/09/30 02:27:54;;;;;;;2.40;2.20;;;23.20;55.00;;;;;;4998924;28;20277;-46
2023/09/30 02:30:20;;;;;;;3.80;2.73;;;23.20;55.20;;;;;;4991207;28;20244;-47
2023/09/30 02:32:46;;;;;;;3.17;2.60;;;23.10;55.30;;;;;;4990159;28;21954;-46
2023/09/30 02:35:13;;;;;;;4.53;2.67;;;23.10;55.30;;;;;;4998947;28;20444;-48
2023/09/30 02:37:40;;;;;;;4.27;2.60;;;23.10;55.30;;;;;;4993613;28;20218;-47
2023/09/30 02:40:10;;;;;;;4.80;2.87;;;23.10;55.30;;;;;;4994524;28;20485;-49
2023/09/30 02:42:40;;;;;;;3.67;2.60;;;23.10;55.20;;;;;;4994848;28;20457;-48
2023/09/30 02:45:07;;;;;;;3.03;2.70;;;23.20;55.40;;;;;;4992038;28;20452;-46
2023/09/30 02:47:34;;;;;;;5.23;2.80;;;23.20;55.30;;;;;;4998097;28;20449;-46
2023/09/30 02:50:00;;;;;;;6.23;2.93;;;23.20;55.60;;;;;;5004777;28;20448;-48
2023/09/30 02:52:26;;;;;;;3.77;2.77;;;23.30;55.00;;;;;;4993958;28;20442;-47
2023/09/30 02:54:51;;;;;;;4.37;3.30;;;23.20;54.70;;;;;;5006887;28;20233;-49
2023/09/30 02:57:17;;;;;;;3.90;2.33;;;23.30;54.70;;;;;;4996396;28;20824;-49
2023/09/30 02:59:44;;;;;;;4.63;3.07;;;23.30;54.50;;;;;;4991929;28;20233;-49
2023/09/30 03:02:11;;;;;;;9.50;3.20;;;23.30;54.40;;;;;;4998986;28;20452;-47
2023/09/30 03:04:37;;;;;;;3.40;3.10;;;23.30;54.30;;;;;;5003223;28;20449;-47
2023/09/30 03:07:02;;;;;;;4.67;3.20;;;23.30;54.30;;;;;;5001812;28;20454;-48
2023/09/30 03:09:28;;;;;;;3.10;2.70;;;23.30;54.40;;;;;;4996400;28;20456;-48
2023/09/30 03:11:56;;;;;;;3.73;3.23;;;23.20;54.50;;;;;;5006321;28;20190;-47
2023/09/30 03:14:22;;;;;;;4.13;3.03;;;23.20;54.70;;;;;;4997152;28;20194;-48
2023/09/30 03:16:48;;;;;;;3.90;2.90;;;23.10;54.60;;;;;;4994974;28;20452;-48
2023/09/30 03:19:16;;;;;;;4.53;2.83;;;23.10;54.70;;;;;;4996351;28;20871;-46
2023/09/30 03:21:42;;;;;;;4.60;3.33;;;23.10;54.90;;;;;;5004530;28;20222;-47
2023/09/30 03:24:08;;;;;;;4.40;3.47;;;23.10;54.70;;;;;;5011753;28;20452;-47
2023/09/30 03:26:35;;;;;;;4.00;3.60;;;23.20;54.80;;;;;;5001288;28;20853;-46
2023/09/30 03:29:01;;;;;;;5.17;3.27;;;23.10;54.70;;;;;;5000530;28;20446;-46
2023/09/30 03:31:26;;;;;;;3.97;2.87;;;23.10;54.70;;;;;;4995400;28;20445;-47
2023/09/30 03:33:53;;;;;;;3.60;2.80;;;23.10;55.00;;;;;;5001615;28;20665;-46
2023/09/30 03:36:24;;;;;;;4.63;2.70;;;23.10;55.20;;;;;;4994081;28;20206;-47
2023/09/30 03:38:50;;;;;;;3.67;3.10;;;23.10;55.10;;;;;;4994214;28;20472;-47
2023/09/30 03:41:16;;;;;;;4.03;2.83;;;23.10;55.10;;;;;;4995194;28;21042;-47
2023/09/30 03:43:41;;;;;;;4.23;2.73;;;23.00;55.40;;;;;;4994567;28;20425;-47
2023/09/30 03:46:08;;;;;;;6.40;3.03;;;23.00;55.70;;;;;;4994859;28;20198;-46
2023/09/30 03:48:39;;;;;;;3.37;3.07;;;23.10;55.00;;;;;;5007906;28;20576;-47
2023/09/30 03:51:15;;;;;;;3.17;2.60;;;23.10;54.80;;;;;;5000820;28;20430;-46
2023/09/30 03:53:42;;;;;;;3.33;3.03;;;23.10;54.80;;;;;;4984599;28;20437;-47
2023/09/30 03:56:08;;;;;;;4.10;2.70;;;23.00;54.80;;;;;;4993268;28;20527;-46
2023/09/30 03:58:33;;;;;;;9.80;3.37;;;22.90;55.00;;;;;;4995426;28;20434;-50
2023/09/30 04:01:04;;;;;;;3.20;2.70;;;22.80;55.10;;;;;;4995426;28;20226;-48
2023/09/30 04:03:29;;;;;;;6.40;3.30;;;22.70;55.10;;;;;;4995423;28;20191;-47
2023/09/30 04:05:56;;;;;;;6.50;3.43;;;22.70;55.80;;;;;;4995191;28;20437;-46
2023/09/30 04:08:22;;;;;;;6.87;4.13;;;22.60;55.30;;;;;;4995143;28;20570;-52
2023/09/30 04:10:47;;;;;;;6.23;4.00;;;22.50;55.40;;;;;;4995107;28;20426;-51
2023/09/30 04:13:13;;;;;;;4.07;3.40;;;22.40;55.60;;;;;;5000252;28;20190;-50
2023/09/30 04:15:39;;;;;;;4.40;3.47;;;22.30;55.80;;;;;;5002811;28;20194;-49
2023/09/30 04:18:05;;;;;;;4.83;3.97;;;22.40;56.30;;;;;;5007557;28;20202;-48
2023/09/30 04:20:31;;;;;;;5.10;3.30;;;22.40;56.00;;;;;;5001936;28;20232;-48
2023/09/30 04:22:57;;;;;;;4.67;3.20;;;22.40;56.10;;;;;;4999659;28;20798;-48
2023/09/30 04:25:24;;;;;;;4.30;3.27;;;22.50;56.30;;;;;;5005064;28;20485;-48
2023/09/30 04:27:50;;;;;;;6.20;3.83;;;22.50;56.20;;;;;;5004661;28;20944;-50
2023/09/30 04:30:17;;;;;;;4.43;3.20;;;22.70;56.60;;;;;;4999077;28;20538;-49
2023/09/30 04:32:43;;;;;;;4.23;3.20;;;22.80;55.90;;;;;;4999658;28;20256;-52
2023/09/30 04:35:09;;;;;;;4.10;3.40;;;22.70;55.40;;;;;;5004863;28;20446;-48
2023/09/30 04:37:36;;;;;;;3.90;3.50;;;22.80;55.60;;;;;;4998070;28;20805;-51
2023/09/30 04:40:15;;;;;;;9.90;4.90;;;22.80;55.90;;;;;;5006856;28;20239;-49
2023/09/30 04:42:44;;;;;;;10.57;3.90;;;22.90;55.20;;;;;;4998062;28;20456;-51
2023/09/30 04:45:10;;;;;;;4.83;3.97;;;22.80;54.90;;;;;;4995097;28;20923;-50
2023/09/30 04:47:38;;;;;;;5.63;4.60;;;22.80;55.20;;;;;;5009359;28;20436;-48
2023/09/30 04:50:07;;;;;;;4.57;4.17;;;22.90;55.10;;;;;;5005434;28;20448;-47
2023/09/30 04:52:33;;;;;;;8.07;4.33;;;22.80;55.20;;;;;;4996325;28;21111;-50
2023/09/30 04:54:59;;;;;;;4.90;4.40;;;22.80;55.20;;;;;;5007000;28;20916;-47
2023/09/30 04:57:26;;;;;;;4.70;4.20;;;22.70;55.30;;;;;;5003994;28;20469;-49
2023/09/30 04:59:51;;;;;;;4.50;3.80;;;22.60;55.60;;;;;;5005670;28;20492;-52
2023/09/30 05:02:17;;;;;;;6.00;3.70;;;22.40;55.70;;;;;;5003338;28;20436;-52
2023/09/30 05:04:42;;;;;;;4.10;3.70;;;22.40;56.20;;;;;;5011460;28;20205;-50
2023/09/30 05:07:08;;;;;;;4.23;3.80;;;22.40;56.50;;;;;;5001253;28;20676;-52
2023/09/30 05:09:34;;;;;;;5.60;4.27;;;22.50;56.40;;;;;;5001304;28;20233;-52
2023/09/30 05:11:59;;;;;;;4.23;3.77;;;22.60;56.10;;;;;;4997166;28;20252;-51
2023/09/30 05:14:27;;;;;;;4.13;3.73;;;22.50;55.90;;;;;;4993042;28;20226;-48
2023/09/30 05:16:53;;;;;;;4.20;3.80;;;22.50;56.00;;;;;;4993482;28;20286;-51
2023/09/30 05:19:20;;;;;;;4.30;3.33;;;22.70;56.10;;;;;;5003204;28;20548;-51
2023/09/30 05:21:47;;;;;;;4.97;3.97;;;22.70;55.80;;;;;;4995908;28;20205;-52
2023/09/30 05:24:12;;;;;;;5.20;3.53;;;22.70;55.70;;;;;;4994972;28;20477;-49
2023/09/30 05:26:38;;;;;;;9.50;3.60;;;22.70;55.70;;;;;;4992066;28;20446;-49
2023/09/30 05:29:04;;;;;;;4.50;3.40;;;22.70;55.70;;;;;;4993905;28;20666;-49
2023/09/30 05:31:30;;;;;;;4.00;3.60;;;22.70;56.00;;;;;;4992709;28;20203;-49
2023/09/30 05:33:56;;;;;;;4.83;3.67;;;22.80;55.90;;;;;;4992778;28;20211;-46
2023/09/30 05:36:22;;;;;;;3.80;3.47;;;22.90;55.80;;;;;;4991851;28;20805;-47
2023/09/30 05:38:48;;;;;;;7.47;3.77;;;22.90;55.60;;;;;;4991774;28;20194;-50
2023/09/30 05:41:16;;;;;;;9.70;4.53;;;22.80;55.60;;;;;;4991783;28;20744;-48
2023/09/30 05:43:43;;;;;;;5.20;3.80;;;22.70;55.80;;;;;;5001479;28;20536;-47
2023/09/30 05:46:09;;;;;;;5.37;4.10;;;22.70;56.20;;;;;;4990931;28;20457;-50
2023/09/30 05:48:36;;;;;;;5.30;4.80;;;22.60;56.30;;;;;;4996260;28;20453;-48
2023/09/30 05:51:02;;;;;;;5.47;3.97;;;22.50;56.60;;;;;;4989710;28;20544;-46
2023/09/30 05:53:32;;;;;;;5.07;4.50;;;22.50;56.70;;;;;;4990189;28;20585;-49
2023/09/30 05:55:59;;;;;;;7.90;3.90;;;22.50;56.70;;;;;;4998333;28;20270;-47
2023/09/30 05:58:26;;;;;;;4.03;3.67;;;22.50;56.70;;;;;;4990662;28;21201;-46
2023/09/30 06:00:53;;;;;;;3.53;3.20;;;22.40;57.00;;;;;;4991632;28;20494;-49
2023/09/30 06:03:18;;;;;;;7.87;3.60;;;22.30;57.20;;;;;;4992548;28;20450;-46
2023/09/30 06:05:44;;;;;;;5.80;4.10;;;22.30;57.10;;;;;;4992763;28;20449;-46
2023/09/30 06:08:13;;;;;;;5.43;3.83;;;22.30;57.70;;;;;;4995160;28;20244;-48
2023/09/30 06:10:42;;;;;;;5.40;3.77;;;22.30;57.20;;;;;;4990618;28;20221;-46
2023/09/30 06:13:08;;;;;;;6.13;3.90;;;22.30;57.30;;;;;;4995578;28;20449;-46
2023/09/30 06:15:36;;;;;;;6.40;3.23;;;22.30;57.20;;;;;;4993072;28;20434;-47
2023/09/30 06:18:04;;;;;;;5.43;4.07;;;22.30;57.30;;;;;;4999480;28;20491;-46
2023/09/30 06:20:30;;;;;;;6.67;4.50;;;22.30;57.40;;;;;;4996695;28;20496;-47
2023/09/30 06:22:56;;;;;;;4.57;4.17;;;22.20;57.50;;;;;;5000291;28;20429;-47
2023/09/30 06:25:24;;;;;;;3.60;3.30;;;22.30;57.60;;;;;;5009749;28;20897;-47
2023/09/30 06:27:50;;;;;;;6.40;4.80;;;22.30;57.60;;;;;;5011143;28;20194;-46
2023/09/30 06:30:16;;;;;;;6.33;3.97;;;22.20;57.60;;;;;;4999488;28;20436;-53
2023/09/30 06:32:42;;;;;;;5.43;4.17;;;22.20;57.50;;;;;;4999130;28;20430;-47
2023/09/30 06:35:12;;;;;;;4.80;4.10;;;22.20;57.60;;;;;;5010054;28;20432;-46
2023/09/30 06:37:38;;;;;;;10.20;4.37;;;22.20;57.70;;;;;;5006445;28;20426;-46
2023/09/30 06:40:09;;;;;;;7.40;4.10;;;22.20;57.70;;;;;;5001671;28;20491;-46
2023/09/30 06:42:35;;;;;;;8.00;4.13;;;22.20;57.90;;;;;;4999990;28;20519;-46
2023/09/30 06:45:05;;;;;;;5.43;4.00;;;22.20;58.00;;;;;;5001852;28;20433;-48
2023/09/30 06:47:33;;;;;;;6.63;3.87;;;22.20;58.20;;;;;;4994356;28;20430;-46
2023/09/30 06:50:07;;;;;;;4.50;4.00;;;22.30;58.30;;;;;;5005103;28;20442;-49
2023/09/30 06:52:37;;;;;;;5.83;3.73;;;22.30;58.30;;;;;;4991598;28;20461;-48
2023/09/30 06:55:04;;;;;;;5.27;4.13;;;22.30;58.30;;;;;;4995682;28;20468;-48
2023/09/30 06:57:36;;;;;;;7.93;4.20;;;22.20;58.30;;;;;;5004042;28;21068;-46
2023/09/30 07:00:13;;;;;;;7.53;3.97;;;22.30;58.30;;;;;;4994847;28;20484;-50
2023/09/30 07:02:42;;;;;;;6.23;4.83;;;22.30;58.30;;;;;;4995064;28;20460;-47
2023/09/30 07:05:09;;;;;;;5.37;4.30;;;22.40;58.30;;;;;;4993679;28;20811;-48
2023/09/30 07:07:34;;;;;;;4.93;3.93;;;22.40;58.10;;;;;;4992157;28;20839;-46
2023/09/30 07:10:00;;;;;;;6.73;4.07;;;22.50;58.10;;;;;;4985642;28;20462;-48
2023/09/30 07:12:26;;;;;;;6.07;3.90;;;22.50;58.00;;;;;;4988796;28;20237;-47
2023/09/30 07:14:52;;;;;;;7.20;4.10;;;22.50;58.00;;;;;;4993995;28;20665;-52
2023/09/30 07:17:18;;;;;;;4.50;3.50;;;22.60;58.00;;;;;;4992541;28;20218;-50
2023/09/30 07:19:43;;;;;;;5.20;4.17;;;22.60;57.90;;;;;;4992962;28;20545;-46
2023/09/30 07:22:09;;;;;;;6.77;4.30;;;22.60;57.80;;;;;;4992231;28;20198;-47
2023/09/30 07:24:35;;;;;;;5.10;4.57;;;22.70;57.70;;;;;;5002816;28;20202;-47
2023/09/30 07:27:00;;;;;;;5.50;4.67;;;22.60;57.50;;;;;;4997922;28;20718;-46
2023/09/30 07:29:26;;;;;;;4.73;4.07;;;22.70;57.30;;;;;;5002075;28;20196;-48
2023/09/30 07:31:51;;;;;;;7.00;4.50;;;22.80;57.80;;;;;;4989789;28;20554;-49
2023/09/30 07:34:17;;;;;;;7.40;4.80;;;22.80;56.90;;;;;;5000064;28;20281;-47
2023/09/30 07:36:42;;;;;;;6.07;4.60;;;22.70;57.60;;;;;;4992762;28;20298;-45
2023/09/30 07:39:08;;;;;;;6.43;4.73;;;22.80;58.10;;;;;;4989164;28;20205;-47
2023/09/30 07:41:37;;;;;;;6.80;4.80;;;22.80;57.50;;;;;;4989853;28;20234;-48
2023/09/30 07:44:02;;;;;;;6.97;4.17;;;22.80;57.40;;;;;;4999400;28;20211;-46
2023/09/30 07:46:28;;;;;;;8.83;4.23;;;22.90;57.20;;;;;;4986373;28;20448;-46
2023/09/30 07:48:55;;;;;;;8.87;4.10;;;23.00;57.10;;;;;;4993476;28;20202;-47
2023/09/30 07:51:20;;;;;;;12.03;4.63;;;23.10;56.90;;;;;;4999465;28;20186;-49
2023/09/30 07:53:46;;;;;;;6.40;4.60;;;23.20;56.70;;;;;;4990422;28;20460;-51
2023/09/30 07:56:13;;;;;;;9.57;4.70;;;23.30;56.50;;;;;;5007445;28;20249;-46
2023/09/30 07:58:38;;;;;;;5.87;4.53;;;23.20;56.50;;;;;;5010998;28;20194;-48
2023/09/30 08:01:04;;;;;;;6.53;5.30;;;23.30;56.30;;;;;;5004902;28;20539;-49
2023/09/30 08:03:30;;;;;;;14.27;5.43;;;23.40;56.20;;;;;;5002461;28;20272;-46
2023/09/30 08:05:56;;;;;;;7.37;4.90;;;23.40;55.90;;;;;;4999510;28;20556;-46
2023/09/30 08:08:23;;;;;;;7.03;4.73;;;23.40;55.90;;;;;;5010469;28;20190;-47
2023/09/30 08:10:50;;;;;;;8.27;4.70;;;23.30;56.00;;;;;;5009256;28;20933;-46
2023/09/30 08:13:17;;;;;;;10.20;5.50;;;23.50;56.20;;;;;;5012036;28;20424;-48
2023/09/30 08:15:43;;;;;;;6.70;5.27;;;23.50;56.30;;;;;;5013933;28;20456;-46
2023/09/30 08:18:08;;;;;;;6.77;4.90;;;23.60;56.10;;;;;;5013972;28;20903;-46
2023/09/30 08:20:34;;;;;;;9.20;4.90;;;23.70;55.70;;;;;;5013979;28;20708;-49
2023/09/30 08:22:59;;;;;;;7.10;4.70;;;23.80;55.80;;;;;;4993812;28;20232;-47
2023/09/30 08:25:26;;;;;;;5.40;4.00;;;23.90;55.40;;;;;;4994028;28;20677;-46
2023/09/30 08:27:52;;;;;;;10.27;5.33;;;24.00;55.20;;;;;;4995590;28;20195;-46
2023/09/30 08:30:17;;;;;;;7.23;5.17;;;24.10;55.00;;;;;;4995796;28;20830;-49
2023/09/30 08:32:43;;;;;;;7.33;4.37;;;24.20;54.60;;;;;;5006741;28;20457;-47
2023/09/30 08:35:09;;;;;;;9.60;5.40;;;24.30;55.00;;;;;;4999166;28;20845;-49
2023/09/30 08:37:35;;;;;;;4.97;4.53;;;24.30;55.00;;;;;;5006614;28;20190;-47
2023/09/30 08:40:01;;;;;;;6.30;4.00;;;24.40;54.20;;;;;;4990136;28;20234;-51
2023/09/30 08:42:32;;;;;;;5.03;4.40;;;24.50;54.10;;;;;;4989779;28;20215;-48
2023/09/30 08:44:58;;;;;;;4.53;4.00;;;24.60;54.20;;;;;;4991200;28;20195;-50
2023/09/30 08:47:27;;;;;;;9.67;4.37;;;24.60;53.70;;;;;;4989835;28;20553;-49
2023/09/30 08:49:56;;;;;;;6.40;4.40;;;24.80;53.60;;;;;;4991023;28;20200;-46
2023/09/30 08:52:22;;;;;;;6.50;3.90;;;24.90;53.30;;;;;;4992504;28;20508;-49
2023/09/30 08:54:48;;;;;;;5.33;4.70;;;25.00;52.80;;;;;;4994409;28;20448;-47
2023/09/30 08:57:18;;;;;;;6.90;4.67;;;24.90;52.80;;;;;;4994620;28;20461;-47
2023/09/30 08:59:46;;;;;;;8.07;5.07;;;25.00;52.90;;;;;;5002378;28;20222;-52
2023/09/30 09:02:11;;;;;;;11.03;4.80;;;25.20;52.40;;;;;;5003341;28;20429;-47
2023/09/30 09:04:37;;;;;;;7.23;4.67;;;25.30;52.30;;;;;;4990288;28;20973;-53
2023/09/30 09:07:03;;;;;;;4.07;3.57;;;25.40;51.60;;;;;;4995966;28;20277;-51
2023/09/30 09:09:28;;;;;;;6.60;3.97;;;25.50;51.60;;;;;;4991315;28;20202;-52
2023/09/30 09:11:54;;;;;;;5.27;4.30;;;25.60;51.60;;;;;;4990349;28;20205;-51
2023/09/30 09:14:37;;;;;;;7.37;3.87;;;25.60;51.30;;;;;;4993406;28;20251;-49
2023/09/30 09:17:04;;;;;;;7.53;5.00;;;25.70;51.20;;;;;;4992965;28;20200;-50
2023/09/30 09:19:30;;;;;;;6.53;4.37;;;25.90;50.70;;;;;;4993142;28;20446;-49
2023/09/30 09:22:00;;;;;;;7.33;4.70;;;25.90;50.50;;;;;;4993741;28;20534;-52
2023/09/30 09:24:51;;;;;;;6.00;4.30;;;26.10;50.40;;;;;;4986269;28;20202;-51
2023/09/30 09:27:16;;;;;;;6.37;4.37;;;26.20;49.20;;;;;;4986571;28;20512;-51
2023/09/30 09:29:44;;;;;;;4.23;3.83;;;26.30;49.50;;;;;;4989804;28;20438;-48
2023/09/30 09:32:12;;;;;;;4.93;4.40;;;26.50;49.10;;;;;;4986374;28;20626;-49
2023/09/30 09:34:39;;;;;;;5.40;4.00;;;26.60;48.50;;;;;;4988865;28;20484;-49
2023/09/30 09:37:19;;;;;;;7.03;4.30;;;26.60;48.30;;;;;;4989869;28;20849;-47
2023/09/30 09:39:57;;;;;;;6.50;4.50;;;26.70;48.40;;;;;;4985552;28;20485;-47
2023/09/30 09:42:31;;;;;;;8.07;4.17;;;26.80;46.80;;;;;;4987776;28;20445;-52
2023/09/30 09:45:05;;;;;;;8.17;3.90;;;26.90;45.40;;;;;;5002424;28;20441;-47
2023/09/30 09:47:32;;;;;;;5.77;3.90;;;26.90;45.30;;;;;;4998313;28;20525;-48
2023/09/30 09:49:58;;;;;;;6.40;4.87;;;26.90;44.90;;;;;;4996980;28;20492;-49
2023/09/30 09:52:24;;;;;;;7.70;4.10;;;26.90;45.10;;;;;;4999526;28;20859;-50
2023/09/30 09:54:51;;;;;;;4.80;3.77;;;27.10;45.30;;;;;;4993616;28;20450;-47
2023/09/30 09:57:18;;;;;;;4.97;3.80;;;27.30;44.40;;;;;;4990246;28;20488;-47
2023/09/30 09:59:49;;;;;;;4.83;4.03;;;27.30;44.20;;;;;;4989841;28;20960;-48
2023/09/30 10:02:16;;;;;;;3.83;3.40;;;27.30;44.20;;;;;;5000430;28;20804;-47
2023/09/30 10:04:43;;;;;;;6.80;4.30;;;27.50;43.80;;;;;;4990644;28;20508;-48
2023/09/30 10:07:14;;;;;;;6.90;4.70;;;27.60;43.70;;;;;;4997369;28;20448;-47
2023/09/30 10:09:45;;;;;;;5.07;4.03;;;27.70;43.20;;;;;;5003036;28;20503;-48
2023/09/30 10:12:12;;;;;;;4.40;3.37;;;27.80;43.60;;;;;;5001396;28;20471;-48
2023/09/30 10:14:38;;;;;;;7.23;4.37;;;27.80;43.60;;;;;;4987079;28;20545;-47
2023/09/30 10:17:04;;;;;;;7.07;4.13;;;27.90;43.70;;;;;;4996036;28;22408;-46
2023/09/30 10:19:31;;;;;;;5.30;3.30;;;28.00;43.10;;;;;;5004134;28;20190;-49
2023/09/30 10:22:16;;;;;;;3.83;3.43;;;28.10;42.80;;;;;;4988649;28;20226;-46
2023/09/30 10:24:42;;;;;;;6.20;4.53;;;28.30;42.00;;;;;;5001903;28;20445;-49
2023/09/30 10:27:28;;;;;;;6.73;4.50;;;28.50;42.10;;;;;;4998762;28;20546;-46
2023/09/30 10:30:15;;;;;;;6.60;4.77;;;28.40;42.00;;;;;;4999900;28;20499;-50
2023/09/30 10:32:53;;;;;;;5.03;3.30;;;28.60;41.30;;;;;;5004320;28;20434;-47
2023/09/30 10:35:38;;;;;;;4.93;4.43;;;28.70;41.40;;;;;;4994249;28;20434;-46
2023/09/30 10:38:26;;;;;;;7.23;4.00;;;28.70;41.30;;;;;;4990625;28;20584;-45
2023/09/30 10:40:52;;;;;;;5.47;3.90;;;28.80;41.00;;;;;;4984964;28;20497;-48
2023/09/30 10:43:40;;;;;;;6.57;4.63;;;28.90;41.00;;;;;;4997690;28;20475;-49
2023/09/30 10:46:26;;;;;;;6.97;4.20;;;29.00;40.80;;;;;;4992998;28;20198;-48
2023/09/30 10:48:52;;;;;;;6.80;4.13;;;29.20;41.70;;;;;;4995062;28;20444;-52
2023/09/30 10:51:21;;;;;;;5.53;4.33;;;29.40;40.60;;;;;;4998844;28;20790;-49
2023/09/30 10:53:51;;;;;;;4.50;3.73;;;29.50;40.40;;;;;;4997081;28;20198;-45
2023/09/30 10:56:17;;;;;;;5.27;3.90;;;29.60;39.80;;;;;;4997073;28;20587;-51
2023/09/30 10:58:43;;;;;;;5.50;4.30;;;29.70;39.70;;;;;;5004518;28;20472;-47
2023/09/30 11:01:10;;;;;;;5.77;4.40;;;29.80;39.30;;;;;;4993875;28;20493;-46
2023/09/30 11:03:36;;;;;;;5.57;4.60;;;30.00;38.20;;;;;;4992647;28;20194;-48
2023/09/30 11:06:03;;;;;;;5.83;3.87;;;30.00;38.40;;;;;;4990621;28;20441;-48
2023/09/30 11:08:30;;;;;;;6.03;4.17;;;30.10;38.00;;;;;;4999126;28;20205;-46
2023/09/30 11:10:56;;;;;;;7.70;4.43;;;30.20;38.30;;;;;;4994934;28;20479;-48
2023/09/30 11:13:22;;;;;;;6.37;4.20;;;30.30;37.30;;;;;;4994594;28;20515;-48
2023/09/30 11:15:59;;;;;;;7.27;4.83;;;30.60;37.60;;;;;;4997195;28;20434;-47
2023/09/30 11:18:25;;;;;;;8.27;4.40;;;30.50;37.90;;;;;;4990136;28;20959;-49
2023/09/30 11:21:10;;;;;;;11.10;4.63;;;30.70;35.70;;;;;;4998039;28;20484;-51
2023/09/30 11:23:36;;;;;;;6.53;5.03;;;30.90;36.20;;;;;;5001720;28;20564;-48
2023/09/30 11:26:04;;;;;;;6.23;4.33;;;31.10;34.80;;;;;;4997275;28;20572;-50
2023/09/30 11:28:41;;;;;;;6.33;4.93;;;31.20;34.40;;;;;;4988455;28;20513;-46
2023/09/30 11:31:11;;;;;;;6.40;5.00;;;31.20;33.30;;;;;;5003832;28;20531;-48
2023/09/30 11:33:55;;;;;;;8.93;5.10;;;31.20;32.80;;;;;;4992209;28;20444;-48
2023/09/30 11:36:21;;;;;;;8.03;4.70;;;31.00;33.40;;;;;;4980961;28;20884;-47
2023/09/30 11:38:48;;;;;;;6.70;4.17;;;31.00;34.60;;;;;;4986345;28;20485;-47
2023/09/30 11:41:15;;;;;;;6.70;5.23;;;31.00;34.60;;;;;;4984876;28;20477;-47
2023/09/30 11:44:02;;;;;;;6.67;4.67;;;31.10;34.20;;;;;;4989946;28;20991;-48
2023/09/30 11:46:27;;;;;;;5.20;4.30;;;31.30;34.30;;;;;;4986857;28;20532;-52
2023/09/30 11:48:59;;;;;;;6.47;4.40;;;31.30;33.40;;;;;;4987146;28;20536;-49
2023/09/30 11:51:26;;;;;;;6.10;5.37;;;31.40;34.30;;;;;;4990467;28;20199;-47
2023/09/30 11:53:57;;;;;;;6.07;4.60;;;31.50;34.60;;;;;;4996460;28;20469;-50
2023/09/30 11:56:28;;;;;;;7.73;5.43;;;31.30;33.40;;;;;;5006494;28;20469;-47
2023/09/30 11:58:55;;;;;;;7.27;5.13;;;31.40;33.00;;;;;;5007149;28;20428;-48
2023/09/30 12:01:21;;;;;;;7.43;4.67;;;31.60;33.20;;;;;;5003831;28;20480;-47
2023/09/30 12:03:48;;;;;;;8.73;5.10;;;31.60;32.40;;;;;;5008266;28;20433;-52
2023/09/30 12:06:15;;;;;;;7.10;4.80;;;31.40;33.60;;;;;;5003076;28;20445;-46
2023/09/30 12:08:42;;;;;;;7.10;5.27;;;31.50;32.50;;;;;;5007315;28;20854;-48
2023/09/30 12:11:07;;;;;;;7.10;5.10;;;31.50;32.10;;;;;;5005425;28;20428;-48
2023/09/30 12:13:33;;;;;;;6.90;4.60;;;31.50;33.00;;;;;;4994927;28;20277;-48
2023/09/30 12:15:58;;;;;;;6.10;4.73;;;31.60;33.80;;;;;;4997240;28;20198;-46
2023/09/30 12:18:24;;;;;;;7.07;5.43;;;31.50;34.00;;;;;;5011077;28;20209;-50
2023/09/30 12:20:53;;;;;;;8.03;4.70;;;31.30;33.90;;;;;;4994328;28;20234;-48
2023/09/30 12:23:19;;;;;;;7.60;4.90;;;31.20;33.90;;;;;;5001925;28;20190;-50
2023/09/30 12:25:46;;;;;;;6.27;4.47;;;31.40;33.80;;;;;;5013389;28;20527;-47
2023/09/30 12:28:13;;;;;;;5.60;4.13;;;31.50;33.50;;;;;;5003981;28;20434;-48
2023/09/30 12:30:39;;;;;;;7.73;5.00;;;31.40;33.30;;;;;;5002684;28;20434;-48
2023/09/30 12:33:06;;;;;;;7.47;5.30;;;31.20;34.10;;;;;;5013990;28;20819;-46
2023/09/30 12:35:33;;;;;;;7.23;5.57;;;31.00;33.50;;;;;;5013716;28;20463;-47
2023/09/30 12:37:58;;;;;;;7.30;4.73;;;30.90;33.40;;;;;;5010251;28;20436;-48
2023/09/30 12:40:24;;;;;;;7.17;4.77;;;30.90;33.70;;;;;;5009525;28;20485;-49
2023/09/30 12:42:50;;;;;;;9.17;4.97;;;30.90;34.40;;;;;;5012854;28;20208;-46
2023/09/30 12:45:16;;;;;;;9.13;5.43;;;30.90;33.60;;;;;;5008256;28;20573;-49
2023/09/30 12:47:42;;;;;;;6.63;4.90;;;30.00;33.60;;;;;;4997991;28;20280;-46